Time;durP1;ratioP1;P1;durP2;ratioP2;P2;SDS_P1;SDS_P2;PMS_P1;PMS_P2;Temp;Humidity;BMP_temperature;BMP_pressure;BME280_temperature;BME280_humidity;BME280_pressure;Samples;Min_cycle;Max_cycle;Signal;HPM_P1;HPM_P2
2021/07/26 00:02:02;;;;;;;15.88;8.38;;;;;;;18.53;53.77;100908.25;5042534;28;20105;-69
2021/07/26 00:04:27;;;;;;;12.30;8.32;;;;;;;18.53;53.83;100905.59;5047923;28;20041;-69
2021/07/26 00:06:53;;;;;;;14.68;7.03;;;;;;;18.55;53.49;100911.63;5045792;28;20044;-68
2021/07/26 00:09:18;;;;;;;12.52;7.60;;;;;;;18.52;53.73;100903.91;5051213;28;20040;-68
2021/07/26 00:11:44;;;;;;;13.43;7.25;;;;;;;18.47;53.73;100904.22;5047150;28;20029;-70
2021/07/26 00:14:09;;;;;;;19.15;9.02;;;;;;;18.40;54.03;100898.53;5042683;28;20090;-70
2021/07/26 00:16:35;;;;;;;11.70;7.72;;;;;;;18.37;53.95;100893.50;5032760;28;20036;-71
2021/07/26 00:19:00;;;;;;;15.38;7.55;;;;;;;18.37;54.02;100893.50;5044997;28;20032;-69
2021/07/26 00:21:26;;;;;;;14.85;7.18;;;;;;;18.42;53.98;100890.50;5046176;28;20170;-70
2021/07/26 00:23:51;;;;;;;13.75;7.38;;;;;;;18.43;53.90;100889.53;5045737;28;20409;-69
2021/07/26 00:26:17;;;;;;;13.15;8.07;;;;;;;18.41;53.49;100891.47;5043801;28;20124;-69
2021/07/26 00:28:42;;;;;;;16.65;7.00;;;;;;;18.38;53.85;100892.53;5047340;28;20460;-70
2021/07/26 00:31:08;;;;;;;11.10;6.95;;;;;;;18.35;53.93;100898.03;5046761;28;20037;-70
2021/07/26 00:36:30;;;;;;;18.23;7.88;;;;;;;18.33;53.64;100889.38;5046131;28;20104;-70
2021/07/26 00:38:56;;;;;;;15.07;7.63;;;;;;;18.19;53.97;100879.78;5049506;28;20040;-71
2021/07/26 00:41:24;;;;;;;15.15;7.60;;;;;;;18.25;54.05;100879.34;5045492;28;20116;-68
2021/07/26 00:43:49;;;;;;;11.73;7.22;;;;;;;18.18;54.14;100875.41;5044938;28;20132;-69
2021/07/26 00:46:16;;;;;;;18.73;8.02;;;;;;;18.10;54.33;100874.31;5024541;28;20507;-70
2021/07/26 00:48:41;;;;;;;15.13;8.25;;;;;;;18.05;54.35;100879.91;5044671;28;20039;-70
2021/07/26 00:51:07;;;;;;;14.45;7.57;;;;;;;17.94;54.66;100878.03;5044625;28;20037;-69
2021/07/26 00:53:34;;;;;;;14.35;7.85;;;;;;;17.92;54.47;100885.25;5034696;28;20086;-69
2021/07/26 00:56:00;;;;;;;16.58;7.72;;;;;;;17.94;54.57;100878.03;5036432;28;20104;-69
2021/07/26 00:58:28;;;;;;;16.98;7.95;;;;;;;17.92;54.68;100877.31;5034775;28;20079;-71
2021/07/26 01:00:55;;;;;;;14.52;6.60;;;;;;;17.91;54.39;100870.31;5051136;28;20033;-68
2021/07/26 01:03:21;;;;;;;13.35;7.10;;;;;;;17.93;54.60;100868.41;5051029;28;20043;-69
2021/07/26 01:05:47;;;;;;;13.70;6.93;;;;;;;17.95;54.36;100870.94;5046935;28;20040;-68
2021/07/26 01:08:13;;;;;;;10.57;6.10;;;;;;;17.96;54.34;100870.84;5051396;28;20041;-69
2021/07/26 01:10:38;;;;;;;12.32;6.35;;;;;;;17.90;54.19;100855.41;5050484;28;20515;-69
2021/07/26 01:13:04;;;;;;;15.18;7.78;;;;;;;17.83;54.59;100856.81;5048174;28;20131;-69
2021/07/26 01:15:29;;;;;;;11.65;7.30;;;;;;;17.93;54.07;100855.19;5047872;28;20458;-68
2021/07/26 01:18:21;;;;;;;14.77;8.82;;;;;;;17.89;53.98;100861.63;5050697;28;20033;-69
2021/07/26 01:21:23;;;;;;;17.30;7.70;;;;;;;17.86;54.19;100859.22;5049004;28;20529;-69
2021/07/26 01:23:50;;;;;;;15.45;7.55;;;;;;;17.70;54.16;100864.75;5050405;28;20045;-69
2021/07/26 01:26:26;;;;;;;14.88;7.97;;;;;;;17.45;55.10;100860.31;5034781;28;20043;-68
2021/07/26 01:28:57;;;;;;;16.92;8.55;;;;;;;17.35;55.65;100859.25;5056211;28;20025;-69
2021/07/26 01:31:23;;;;;;;16.43;7.73;;;;;;;17.41;55.19;100862.31;5049616;28;20033;-69
2021/07/26 01:33:50;;;;;;;14.23;7.95;;;;;;;17.36;55.22;100866.25;5067041;28;20287;-68
2021/07/26 01:36:16;;;;;;;12.35;7.75;;;;;;;17.32;55.56;100865.59;5033766;28;20539;-69
2021/07/26 01:38:45;;;;;;;11.70;7.65;;;;;;;17.41;55.16;100864.13;5050921;28;20029;-69
2021/07/26 01:41:19;;;;;;;10.25;6.75;;;;;;;17.42;55.12;100871.09;5049285;28;20064;-69
2021/07/26 01:44:10;;;;;;;16.88;6.93;;;;;;;17.32;55.04;100865.59;5037917;28;20108;-69
2021/07/26 01:47:15;;;;;;;11.30;7.05;;;;;;;17.23;55.30;100869.72;5049095;28;20115;-69
2021/07/26 01:49:52;;;;;;;9.52;7.10;;;;;;;17.28;55.31;100871.19;4927495;28;20129;-69
2021/07/26 01:52:19;;;;;;;14.10;7.47;;;;;;;17.32;55.17;100868.25;4963398;28;20046;-69
2021/07/26 01:54:44;;;;;;;11.43;7.28;;;;;;;17.30;54.97;100866.66;5010119;28;20071;-69
2021/07/26 01:57:10;;;;;;;11.30;6.72;;;;;;;17.34;54.98;100868.16;5050569;28;20494;-69
2021/07/26 01:59:37;;;;;;;17.23;8.20;;;;;;;17.23;55.09;100872.34;5049919;28;20029;-69
2021/07/26 02:02:03;;;;;;;12.93;7.55;;;;;;;17.14;55.45;100870.34;5047375;28;20037;-69
2021/07/26 02:04:28;;;;;;;11.75;7.18;;;;;;;17.12;55.34;100864.31;5032526;28;20195;-70
2021/07/26 02:06:54;;;;;;;15.45;8.18;;;;;;;17.05;55.53;100872.78;5028113;28;20032;-69
2021/07/26 02:09:19;;;;;;;15.13;9.73;;;;;;;16.99;56.25;100876.66;5047521;28;20035;-71
2021/07/26 02:11:45;;;;;;;12.00;8.50;;;;;;;17.03;56.30;100875.50;5048620;28;20398;-70
2021/07/26 02:14:10;;;;;;;18.60;8.63;;;;;;;17.12;55.98;100869.59;5047022;28;20036;-70
2021/07/26 02:16:37;;;;;;;15.55;8.68;;;;;;;17.18;55.79;100868.31;5048485;28;20045;-70
2021/07/26 02:19:03;;;;;;;13.80;8.48;;;;;;;17.17;55.66;100867.47;5047933;28;20553;-70
2021/07/26 02:21:29;;;;;;;16.20;9.18;;;;;;;17.28;55.16;100866.75;5047943;28;20041;-71
2021/07/26 02:23:55;;;;;;;16.50;8.45;;;;;;;17.23;55.27;100869.72;5047096;28;20139;-70
2021/07/26 02:26:20;;;;;;;20.88;10.45;;;;;;;17.11;55.64;100870.53;5045003;28;20132;-70
2021/07/26 02:28:46;;;;;;;14.32;10.23;;;;;;;17.14;55.94;100870.34;5047731;28;20111;-69
2021/07/26 02:31:11;;;;;;;14.20;9.25;;;;;;;17.20;56.01;100866.44;5049950;28;20036;-71
2021/07/26 02:33:37;;;;;;;19.08;9.68;;;;;;;17.26;55.50;100871.28;5049342;28;20033;-68
2021/07/26 02:36:02;;;;;;;19.17;11.43;;;;;;;17.24;55.88;100867.91;5027980;28;20032;-68
2021/07/26 02:38:28;;;;;;;16.92;11.02;;;;;;;17.25;55.77;100864.34;5045712;28;20036;-70
2021/07/26 02:40:53;;;;;;;19.77;11.00;;;;;;;17.33;55.86;100866.44;5046669;28;20029;-70
2021/07/26 02:43:21;;;;;;;15.73;11.00;;;;;;;17.34;55.83;100871.63;5047137;28;20600;-69
2021/07/26 02:45:48;;;;;;;17.95;11.18;;;;;;;17.42;55.67;100871.09;5045318;28;20119;-68
2021/07/26 02:48:14;;;;;;;20.65;11.85;;;;;;;17.45;55.71;100871.72;5045863;28;20099;-69
2021/07/26 02:50:39;;;;;;;19.15;11.00;;;;;;;17.49;55.83;100872.38;5045545;28;20036;-70
2021/07/26 02:53:05;;;;;;;16.90;11.73;;;;;;;17.50;55.81;100868.78;5027350;28;20082;-69
2021/07/26 02:55:30;;;;;;;23.30;12.98;;;;;;;17.47;55.89;100882.19;5046081;28;20128;-69
2021/07/26 02:57:56;;;;;;;21.63;12.52;;;;;;;17.40;56.22;100880.91;5047897;28;20074;-68
2021/07/26 03:00:22;;;;;;;17.52;12.07;;;;;;;17.44;55.97;100882.38;5043496;28;20033;-68
2021/07/26 03:02:47;;;;;;;15.23;11.75;;;;;;;17.48;56.02;100885.72;5050087;28;20020;-68
2021/07/26 03:05:13;;;;;;;19.35;12.30;;;;;;;17.47;56.00;100882.19;5044780;28;20045;-69
2021/07/26 03:07:38;;;;;;;25.10;12.52;;;;;;;17.48;56.00;100889.19;5044398;28;20239;-68
2021/07/26 03:10:04;;;;;;;21.63;13.25;;;;;;;17.47;56.21;100895.41;5047768;28;20028;-68
2021/07/26 03:12:29;;;;;;;17.10;13.07;;;;;;;17.41;56.44;100898.47;5046812;28;20041;-68
2021/07/26 03:14:55;;;;;;;20.58;12.13;;;;;;;17.38;56.31;100898.66;5045044;28;20068;-68
2021/07/26 03:17:24;;;;;;;19.90;13.30;;;;;;;17.31;56.59;100900.88;5036495;28;20432;-68
2021/07/26 03:19:53;;;;;;;30.20;13.45;;;;;;;17.34;56.66;100899.84;5061193;22;20029;-67
2021/07/26 03:22:57;;;;;;;20.92;13.23;;;;;;;17.33;56.75;100895.50;5033788;28;20039;-67
2021/07/26 03:25:22;;;;;;;26.50;12.40;;;;;;;17.35;56.34;100902.34;5035009;28;20537;-67
2021/07/26 03:27:48;;;;;;;18.23;12.43;;;;;;;17.37;56.13;100911.03;5026115;28;20041;-67
2021/07/26 03:30:16;;;;;;;19.75;12.93;;;;;;;17.39;56.31;100908.28;5021912;28;20052;-66
2021/07/26 03:32:42;;;;;;;22.67;13.27;;;;;;;17.37;56.14;100908.38;5023282;28;20029;-67
2021/07/26 03:35:08;;;;;;;21.45;13.43;;;;;;;17.29;56.13;100913.38;5023254;28;20529;-67
2021/07/26 03:37:33;;;;;;;25.42;14.65;;;;;;;17.30;56.12;100912.41;5023708;28;20033;-70
2021/07/26 03:39:59;;;;;;;18.55;11.48;;;;;;;17.28;56.34;100916.94;5026094;28;20479;-71
2021/07/26 03:42:27;;;;;;;23.10;11.38;;;;;;;17.32;56.43;100907.88;5025921;28;20403;-69
2021/07/26 03:44:55;;;;;;;21.70;12.07;;;;;;;17.36;56.09;100913.78;5022753;28;20057;-69
2021/07/26 03:47:22;;;;;;;20.23;12.70;;;;;;;17.34;55.76;100911.25;5023072;28;20450;-69
2021/07/26 03:49:50;;;;;;;17.15;13.18;;;;;;;17.21;56.19;100919.16;5022401;28;20035;-65
2021/07/26 03:52:18;;;;;;;21.13;13.77;;;;;;;17.26;55.98;100918.00;5022897;28;20521;-67
2021/07/26 03:54:43;;;;;;;15.45;10.73;;;;;;;17.28;56.13;100918.75;5024433;28;20478;-67
2021/07/26 03:57:08;;;;;;;18.00;12.18;;;;;;;17.35;56.08;100917.38;5022311;28;20079;-67
2021/07/26 03:59:37;;;;;;;23.42;13.38;;;;;;;17.39;55.93;100924.97;5021897;28;20513;-66
2021/07/26 04:02:03;;;;;;;17.77;12.48;;;;;;;17.35;55.88;100918.22;5023748;28;20060;-66
2021/07/26 04:04:29;;;;;;;15.85;11.40;;;;;;;17.31;56.23;100927.28;5021416;28;20495;-66
2021/07/26 04:07:00;;;;;;;18.67;12.13;;;;;;;17.32;55.77;100928.16;5023224;28;20922;-70
2021/07/26 04:09:31;;;;;;;;;;;;;;;17.53;55.39;100929.34;5037571;28;20419;-71
2021/07/26 04:12:03;;;;;;;18.67;11.30;;;;;;;17.52;55.39;100927.66;5024182;28;19920;-71
2021/07/26 04:14:30;;;;;;;17.80;12.35;;;;;;;17.41;55.40;100916.97;5022275;28;20079;-70
2021/07/26 04:16:56;;;;;;;16.23;9.20;;;;;;;17.49;55.65;100930.50;5039046;28;20037;-71
2021/07/26 04:19:22;;;;;;;16.65;10.23;;;;;;;17.61;55.05;100923.56;5022802;28;20636;-69
2021/07/26 04:21:47;;;;;;;13.45;9.75;;;;;;;17.68;55.28;100918.69;5023464;28;20068;-70
2021/07/26 04:24:13;;;;;;;20.30;11.65;;;;;;;17.74;54.77;100915.59;5022233;28;20041;-68
2021/07/26 04:26:38;;;;;;;16.25;10.90;;;;;;;17.84;54.16;100920.13;5022673;28;20028;-68
2021/07/26 04:29:04;;;;;;;18.38;11.10;;;;;;;17.86;54.64;100917.38;5021432;28;20508;-68
2021/07/26 04:31:29;;;;;;;19.35;11.27;;;;;;;17.78;54.76;100925.00;5024727;28;20049;-68
2021/07/26 04:33:55;;;;;;;20.45;12.52;;;;;;;17.82;54.93;100922.03;5043072;28;20040;-67
2021/07/26 04:36:20;;;;;;;17.27;11.95;;;;;;;17.74;54.66;100921.75;5026996;28;20029;-70
2021/07/26 04:38:46;;;;;;;16.55;11.27;;;;;;;17.92;54.80;100926.69;5025155;28;20037;-70
2021/07/26 04:41:12;;;;;;;16.40;11.02;;;;;;;18.05;54.14;100917.78;5025323;28;20144;-69
2021/07/26 04:43:38;;;;;;;14.88;9.18;;;;;;;18.10;54.59;100921.91;5026147;28;20082;-69
2021/07/26 04:46:04;;;;;;;14.15;10.82;;;;;;;18.21;54.40;100922.03;5023365;28;20046;-68
2021/07/26 04:48:30;;;;;;;23.33;11.25;;;;;;;18.17;54.05;100921.34;5040121;28;20036;-68
2021/07/26 04:50:56;;;;;;;18.50;10.13;;;;;;;18.27;54.32;100924.19;5023985;28;20466;-67
2021/07/26 04:53:23;;;;;;;18.77;12.45;;;;;;;18.22;54.36;100927.19;5024955;28;20453;-69
2021/07/26 04:55:49;;;;;;;14.43;8.63;;;;;;;18.30;54.82;100921.34;5027487;28;20041;-68
2021/07/26 04:58:15;;;;;;;22.30;12.05;;;;;;;18.43;54.25;100919.50;5025384;28;20643;-71
2021/07/26 05:00:40;;;;;;;19.08;12.40;;;;;;;18.51;53.98;100926.88;5027617;28;20037;-71
2021/07/26 05:03:09;;;;;;;22.25;12.45;;;;;;;18.50;53.85;100922.56;5026238;28;20033;-69
2021/07/26 05:05:37;;;;;;;17.13;10.23;;;;;;;18.59;54.10;100919.22;5026341;28;20033;-70
2021/07/26 05:08:03;;;;;;;18.50;12.00;;;;;;;18.64;54.09;100924.19;5025001;28;20441;-69
2021/07/26 05:10:29;;;;;;;21.55;13.93;;;;;;;18.59;53.78;100921.88;5026670;28;20064;-70
2021/07/26 05:12:54;;;;;;;19.55;13.60;;;;;;;18.58;53.83;100914.88;5026295;28;20510;-69
2021/07/26 05:15:20;;;;;;;21.85;13.98;;;;;;;18.65;54.02;100917.91;5040028;28;20033;-71
2021/07/26 05:17:45;;;;;;;26.40;16.80;;;;;;;18.57;53.54;100923.78;5027229;28;20037;-71
2021/07/26 05:20:11;;;;;;;23.33;14.10;;;;;;;18.48;54.13;100912.06;5041905;28;20045;-69
2021/07/26 05:22:40;;;;;;;26.83;16.05;;;;;;;18.53;53.73;100916.19;5027257;28;20033;-69
2021/07/26 05:25:06;;;;;;;22.65;15.45;;;;;;;18.68;54.08;100920.34;5030957;28;20033;-69
2021/07/26 05:27:32;;;;;;;30.48;16.13;;;;;;;18.82;53.82;100922.81;5026062;28;20654;-71
2021/07/26 05:29:58;;;;;;;18.90;13.20;;;;;;;18.92;53.91;100927.44;5030636;28;20033;-70
2021/07/26 05:32:23;;;;;;;22.75;15.38;;;;;;;18.84;53.28;100935.94;5026163;28;20033;-69
2021/07/26 05:34:51;;;;;;;30.33;16.23;;;;;;;18.81;53.33;100934.38;5025940;28;20410;-69
2021/07/26 05:37:17;;;;;;;23.75;15.05;;;;;;;18.91;53.20;100931.06;5025417;28;20041;-66
2021/07/26 05:39:43;;;;;;;24.63;15.25;;;;;;;18.99;52.72;100924.25;5024998;28;20095;-68
2021/07/26 05:42:11;;;;;;;25.42;15.10;;;;;;;19.19;53.19;100925.41;5024512;28;20042;-67
2021/07/26 05:44:40;;;;;;;26.15;13.95;;;;;;;19.26;52.23;100931.91;5040981;28;20033;-72
2021/07/26 05:47:08;;;;;;;30.50;16.83;;;;;;;19.05;52.54;100933.53;5026137;28;20055;-67
2021/07/26 05:49:34;;;;;;;23.40;14.43;;;;;;;19.07;52.75;100939.56;5025604;28;20083;-68
2021/07/26 05:51:59;;;;;;;26.17;16.05;;;;;;;19.03;52.77;100938.09;5026702;28;20100;-68
2021/07/26 05:54:25;;;;;;;26.30;16.90;;;;;;;19.07;52.75;100932.44;5026397;28;20033;-69
2021/07/26 05:56:52;;;;;;;28.42;17.50;;;;;;;19.12;52.48;100937.38;5026396;28;20442;-67
2021/07/26 05:59:18;;;;;;;29.58;16.42;;;;;;;19.29;52.17;100931.66;5024210;28;20037;-68
2021/07/26 06:01:47;;;;;;;25.10;16.80;;;;;;;19.46;51.86;100937.50;5041029;28;20037;-68
2021/07/26 06:04:23;;;;;;;24.95;15.43;;;;;;;19.80;51.38;100942.88;5023965;28;20041;-69
2021/07/26 06:06:54;;;;;;;25.42;14.05;;;;;;;20.33;51.23;100927.16;5026068;28;20036;-71
2021/07/26 06:09:22;;;;;;;25.63;17.40;;;;;;;20.37;49.42;100933.91;5026033;28;20029;-67
2021/07/26 06:11:49;;;;;;;24.73;15.55;;;;;;;20.25;48.98;100932.25;5025785;28;20092;-68
2021/07/26 06:14:15;;;;;;;26.05;17.27;;;;;;;20.45;49.04;100935.94;5025425;28;20040;-70
2021/07/26 06:16:46;;;;;;;23.50;16.13;;;;;;;20.40;48.73;100933.66;5027711;28;20037;-69
2021/07/26 06:19:12;;;;;;;25.80;15.60;;;;;;;20.60;48.46;100929.38;5023132;28;20041;-66
2021/07/26 06:21:53;;;;;;;19.60;13.55;;;;;;;21.48;47.30;100930.09;5023849;28;20073;-67
2021/07/26 06:24:21;;;;;;;21.10;14.30;;;;;;;22.97;43.48;100935.56;5039705;28;20052;-67
2021/07/26 06:26:47;;;;;;;22.02;14.13;;;;;;;23.95;40.20;100925.50;5027875;28;20167;-68
2021/07/26 06:29:13;;;;;;;18.77;12.55;;;;;;;24.45;39.45;100933.09;5024378;28;20060;-66
2021/07/26 06:31:39;;;;;;;20.83;13.55;;;;;;;25.22;39.29;100925.44;5024769;28;20053;-67
2021/07/26 06:34:05;;;;;;;21.65;13.55;;;;;;;26.34;34.96;100931.69;5025261;28;20672;-68
2021/07/26 06:36:31;;;;;;;20.33;13.27;;;;;;;25.83;36.30;100934.34;5039779;28;20021;-67
2021/07/26 06:38:57;;;;;;;20.55;13.10;;;;;;;25.41;37.89;100922.53;5023515;28;20117;-67
2021/07/26 06:41:23;;;;;;;22.80;13.38;;;;;;;24.31;39.22;100921.06;5036915;28;20089;-67
2021/07/26 06:43:52;;;;;;;19.00;13.70;;;;;;;23.62;40.34;100920.56;5025348;28;20083;-67
2021/07/26 06:46:18;;;;;;;17.25;12.68;;;;;;;22.90;43.84;100929.94;5038772;28;20723;-68
2021/07/26 06:49:09;;;;;;;17.83;13.65;;;;;;;22.26;44.58;100930.41;5026528;28;20030;-68
2021/07/26 06:51:34;;;;;;;19.35;14.23;;;;;;;22.01;45.64;100927.25;5023228;28;20040;-67
2021/07/26 06:54:00;;;;;;;22.27;13.68;;;;;;;22.30;45.03;100931.84;5024214;28;20045;-68
2021/07/26 06:56:25;;;;;;;16.50;12.95;;;;;;;22.80;44.02;100931.75;5022396;28;20034;-69
2021/07/26 06:58:51;;;;;;;24.65;14.07;;;;;;;23.75;41.69;100930.91;5039862;28;20514;-67
2021/07/26 07:01:17;;;;;;;20.02;13.15;;;;;;;24.99;39.50;100922.41;5037349;28;20120;-67
2021/07/26 07:03:45;;;;;;;13.48;10.63;;;;;;;26.65;36.85;100935.44;5024491;28;20384;-67
2021/07/26 07:06:12;;;;;;;18.85;12.40;;;;;;;26.66;35.32;100925.56;5037976;28;20050;-67
2021/07/26 07:08:38;;;;;;;17.25;12.30;;;;;;;26.28;37.08;100923.28;5023997;28;20072;-66
2021/07/26 07:11:09;;;;;;;18.38;11.48;;;;;;;27.70;34.19;100924.78;5022774;28;20025;-66
2021/07/26 07:13:38;;;;;;;17.70;13.18;;;;;;;28.53;32.07;100928.72;5024022;28;20037;-66
2021/07/26 07:16:11;;;;;;;18.58;12.48;;;;;;;29.71;30.29;100927.34;5022253;28;20465;-66
2021/07/26 07:18:38;;;;;;;19.92;12.45;;;;;;;29.68;30.23;100925.00;5023339;28;20037;-68
2021/07/26 07:21:04;;;;;;;13.88;9.68;;;;;;;30.40;29.61;100923.41;5025020;28;20037;-67
2021/07/26 07:23:30;;;;;;;13.80;10.48;;;;;;;31.21;28.27;100928.47;5024528;28;20103;-66
2021/07/26 07:25:55;;;;;;;14.23;9.93;;;;;;;30.73;29.27;100930.97;5022962;28;20029;-67
2021/07/26 07:28:24;;;;;;;13.63;10.13;;;;;;;31.08;27.85;100929.22;5022863;28;20052;-68
2021/07/26 07:30:49;;;;;;;14.65;10.82;;;;;;;30.89;27.20;100928.03;5039220;28;20057;-66
2021/07/26 07:33:14;;;;;;;12.02;9.35;;;;;;;31.44;27.70;100930.91;5021309;28;20067;-67
2021/07/26 07:35:40;;;;;;;14.75;10.60;;;;;;;31.68;27.79;100923.38;5022684;28;20123;-68
2021/07/26 07:38:06;;;;;;;13.05;10.85;;;;;;;30.48;27.58;100919.72;5022545;28;20037;-68
2021/07/26 07:40:31;;;;;;;10.18;7.65;;;;;;;30.56;29.58;100916.94;5024061;28;20041;-68
2021/07/26 07:42:57;;;;;;;14.77;8.77;;;;;;;31.24;27.35;100924.53;5021244;28;20037;-67
2021/07/26 07:45:22;;;;;;;11.85;9.35;;;;;;;32.17;25.96;100922.34;5023279;28;20044;-67
2021/07/26 07:47:48;;;;;;;9.30;7.80;;;;;;;33.89;23.63;100917.03;5020034;28;20064;-68
2021/07/26 07:50:15;;;;;;;16.70;8.38;;;;;;;34.74;23.21;100930.28;5020178;28;20041;-68
2021/07/26 07:52:41;;;;;;;12.13;7.95;;;;;;;34.60;21.85;100937.72;5021727;28;20029;-68
2021/07/26 07:55:08;;;;;;;11.07;7.65;;;;;;;32.66;25.53;100937.41;5021932;28;20051;-66
2021/07/26 07:57:36;;;;;;;11.75;8.20;;;;;;;31.66;26.44;100933.53;5021798;28;20043;-67
2021/07/26 08:00:10;;;;;;;9.68;7.57;;;;;;;29.82;29.57;100931.41;5021493;28;20048;-68
2021/07/26 08:02:35;;;;;;;8.88;7.25;;;;;;;28.63;32.13;100931.19;5022792;28;20048;-67
2021/07/26 08:05:02;;;;;;;10.63;7.45;;;;;;;29.57;30.73;100929.00;5022246;28;20041;-67
2021/07/26 08:07:27;;;;;;;9.15;7.97;;;;;;;30.15;29.09;100936.38;5023234;28;20113;-68
2021/07/26 08:09:52;;;;;;;17.20;9.18;;;;;;;29.55;29.85;100936.41;5021755;28;20120;-66
2021/07/26 08:12:18;;;;;;;10.48;8.88;;;;;;;29.58;29.09;100919.88;5022797;28;20030;-66
2021/07/26 08:14:44;;;;;;;13.43;8.13;;;;;;;30.32;29.21;100932.44;5037059;28;20875;-66
2021/07/26 08:17:10;;;;;;;11.13;8.50;;;;;;;31.87;26.26;100922.59;5023715;28;20124;-66
2021/07/26 08:19:37;;;;;;;8.75;7.85;;;;;;;32.13;26.19;100924.59;5019049;28;20667;-67
2021/07/26 08:22:03;;;;;;;10.23;7.90;;;;;;;33.71;26.56;100925.88;5021898;28;20395;-67
2021/07/26 08:24:29;;;;;;;10.77;6.35;;;;;;;34.89;24.16;100934.31;5019225;28;20220;-67
2021/07/26 08:26:54;;;;;;;10.25;8.43;;;;;;;35.30;22.49;100935.59;5020132;28;20037;-67
2021/07/26 08:29:19;;;;;;;9.88;8.82;;;;;;;34.86;22.21;100940.19;5034529;28;20033;-67
2021/07/26 08:31:45;;;;;;;9.90;8.52;;;;;;;35.00;22.38;100937.38;5021900;28;20029;-67
2021/07/26 08:34:10;;;;;;;11.95;8.50;;;;;;;35.40;21.92;100934.28;5019586;28;20037;-68
2021/07/26 08:36:36;;;;;;;14.45;8.30;;;;;;;36.07;22.77;100937.84;5019388;28;20037;-68
2021/07/26 08:39:02;;;;;;;8.00;4.95;;;;;;;36.81;22.08;100939.47;5018585;28;20043;-68
2021/07/26 08:41:27;;;;;;;10.63;9.00;;;;;;;37.29;19.69;100941.97;5019925;28;20030;-67
2021/07/26 08:43:53;;;;;;;10.10;8.55;;;;;;;36.25;21.29;100941.59;5018100;28;20052;-68
2021/07/26 08:46:19;;;;;;;6.30;5.70;;;;;;;37.10;20.88;100937.75;5019693;28;20140;-68
2021/07/26 08:48:47;;;;;;;11.48;7.90;;;;;;;36.75;20.78;100932.25;5016027;28;20041;-68
2021/07/26 08:51:16;;;;;;;7.57;6.40;;;;;;;36.30;21.41;100939.84;5018625;28;20037;-67
2021/07/26 08:53:43;;;;;;;9.23;8.27;;;;;;;36.30;21.13;100941.75;5020011;28;20111;-67
2021/07/26 08:56:08;;;;;;;5.90;5.35;;;;;;;36.01;22.20;100938.78;5016608;28;20079;-68
2021/07/26 08:58:35;;;;;;;9.68;7.35;;;;;;;34.80;22.48;100951.94;5020257;28;20045;-67
2021/07/26 09:01:02;;;;;;;10.35;5.20;;;;;;;35.14;21.20;100948.97;5017957;28;20493;-67
2021/07/26 09:03:27;;;;;;;7.40;6.65;;;;;;;35.11;21.10;100952.94;5019653;28;20048;-66
2021/07/26 09:05:53;;;;;;;6.70;6.03;;;;;;;33.39;22.71;100947.38;5020903;28;20124;-66
2021/07/26 09:08:18;;;;;;;10.95;6.50;;;;;;;31.31;26.43;100952.41;5016380;28;21425;-67
2021/07/26 09:10:44;;;;;;;9.48;6.95;;;;;;;30.71;27.02;100941.13;5022033;28;20032;-67
2021/07/26 09:13:12;;;;;;;11.07;6.80;;;;;;;31.05;26.65;100947.66;5021284;28;20419;-67
2021/07/26 09:15:38;;;;;;;13.82;7.50;;;;;;;31.03;26.38;100945.16;5021107;28;20036;-67
2021/07/26 09:18:06;;;;;;;7.50;5.85;;;;;;;31.07;28.21;100942.91;5022763;28;20041;-68
2021/07/26 09:20:33;;;;;;;9.05;7.13;;;;;;;30.78;26.86;100942.88;5021197;28;20048;-67
2021/07/26 09:23:13;;;;;;;8.35;6.18;;;;;;;30.73;27.02;100950.69;5022507;28;20048;-65
2021/07/26 09:25:47;;;;;;;9.88;6.38;;;;;;;31.04;27.09;100954.94;5023951;28;20025;-67
2021/07/26 09:28:17;;;;;;;6.97;5.40;;;;;;;30.26;27.26;100952.06;5034626;28;20516;-67
2021/07/26 09:30:49;;;;;;;7.80;7.10;;;;;;;28.59;29.93;100956.75;5023759;28;20037;-67
2021/07/26 09:33:28;;;;;;;8.60;6.05;;;;;;;28.90;30.75;100958.56;5021919;28;20033;-67
2021/07/26 09:36:13;;;;;;;7.28;6.43;;;;;;;28.51;31.15;100952.25;5019548;28;20029;-67
2021/07/26 09:38:58;;;;;;;7.32;6.55;;;;;;;28.67;30.71;100959.41;5024149;28;20030;-66
2021/07/26 09:41:45;;;;;;;10.77;8.07;;;;;;;29.66;29.50;100963.91;5022801;28;20091;-67
2021/07/26 09:44:12;;;;;;;10.77;7.88;;;;;;;30.53;28.21;100965.81;5021376;28;20033;-69
2021/07/26 09:46:43;;;;;;;11.57;8.13;;;;;;;30.34;28.42;100956.50;5040514;28;20075;-67
2021/07/26 09:49:13;;;;;;;8.45;7.10;;;;;;;30.09;28.69;100964.09;5024451;28;20029;-68
2021/07/26 09:51:39;;;;;;;12.40;8.13;;;;;;;29.73;28.08;100960.31;5024869;28;20383;-67
2021/07/26 09:54:05;;;;;;;11.15;8.13;;;;;;;29.79;30.51;100958.72;5025167;28;20061;-67
2021/07/26 09:56:34;;;;;;;9.10;7.18;;;;;;;30.11;28.89;100962.03;5025664;28;20036;-67
2021/07/26 09:59:03;;;;;;;8.43;6.82;;;;;;;30.33;28.05;100957.53;5024893;28;20506;-66
2021/07/26 10:01:30;;;;;;;6.18;5.35;;;;;;;29.09;28.44;100952.66;5025099;28;20409;-68
2021/07/26 10:03:58;;;;;;;6.93;6.20;;;;;;;29.81;28.43;100950.44;5024144;28;20040;-67
2021/07/26 10:06:26;;;;;;;6.68;5.18;;;;;;;29.81;28.50;100953.97;5038740;28;20730;-67
2021/07/26 10:08:54;;;;;;;6.00;5.40;;;;;;;29.50;28.83;100954.97;5026049;28;20041;-66
2021/07/26 10:11:20;;;;;;;6.70;4.78;;;;;;;29.99;27.94;100956.28;5020603;28;20087;-67
2021/07/26 10:13:49;;;;;;;8.05;3.67;;;;;;;30.05;29.20;100952.00;5026014;28;20049;-67
2021/07/26 10:16:18;;;;;;;4.50;3.70;;;;;;;30.26;27.60;100954.75;5022313;28;20029;-68
2021/07/26 10:18:45;;;;;;;5.57;3.85;;;;;;;29.83;26.97;100946.53;5066526;22;20462;-69
2021/07/26 10:21:15;;;;;;;13.07;4.80;;;;;;;30.08;27.70;100955.16;5053505;28;20064;-70
2021/07/26 10:23:44;;;;;;;6.55;4.65;;;;;;;30.62;25.67;100953.06;5062176;28;20535;-69
2021/07/26 10:26:13;;;;;;;6.88;4.38;;;;;;;29.61;27.37;100955.56;5057619;28;20647;-69
2021/07/26 10:28:43;;;;;;;5.13;4.63;;;;;;;30.46;27.13;100962.22;5059676;28;20048;-70
2021/07/26 10:31:27;;;;;;;7.72;4.88;;;;;;;30.86;26.66;100965.34;5067467;28;20445;-69
2021/07/26 10:34:03;;;;;;;8.73;4.38;;;;;;;30.77;26.14;100962.75;5062790;28;20059;-68
2021/07/26 10:36:59;;;;;;;4.47;4.07;;;;;;;30.65;26.36;100955.41;5054695;28;20543;-70
2021/07/26 10:39:27;;;;;;;7.93;4.13;;;;;;;29.67;28.35;100954.84;5041107;28;20071;-71
2021/07/26 10:41:55;;;;;;;8.90;4.97;;;;;;;30.35;27.58;100950.91;5059742;28;20037;-69
2021/07/26 10:44:21;;;;;;;7.13;6.18;;;;;;;30.16;26.51;100954.22;5061069;28;20444;-69
2021/07/26 10:46:53;;;;;;;7.43;4.13;;;;;;;30.41;26.83;100952.00;5057648;28;20063;-69
2021/07/26 10:49:19;;;;;;;7.57;4.97;;;;;;;30.36;26.85;100952.59;5050616;28;20045;-70
2021/07/26 10:51:50;;;;;;;6.00;5.35;;;;;;;30.67;26.18;100954.19;5053313;28;20040;-68
2021/07/26 10:54:36;;;;;;;7.88;6.47;;;;;;;30.44;27.31;100956.19;5069955;22;20441;-74
2021/07/26 10:57:06;;;;;;;6.95;5.00;;;;;;;30.65;26.39;100952.72;5030479;28;20057;-73
2021/07/26 11:00:09;;;;;;;4.95;3.53;;;;;;;30.95;25.55;100954.19;5031306;28;20348;-74
2021/07/26 11:02:37;;;;;;;6.28;4.07;;;;;;;30.61;26.87;100954.94;5025757;28;20044;-73
2021/07/26 11:05:25;;;;;;;6.28;5.00;;;;;;;28.96;28.11;100947.06;5008468;28;20067;-72
2021/07/26 11:08:24;;;;;;;5.50;4.55;;;;;;;30.16;28.07;100948.84;5028023;28;20039;-72
2021/07/26 11:10:56;;;;;;;6.93;4.97;;;;;;;30.27;26.87;100947.53;4991210;28;20289;-73
2021/07/26 11:13:23;;;;;;;5.78;4.85;;;;;;;30.87;26.66;100940.00;5040237;28;20037;-73
2021/07/26 11:15:55;;;;;;;6.75;4.25;;;;;;;31.02;26.84;100948.06;5025713;28;20042;-72
2021/07/26 11:18:44;;;;;;;7.70;5.15;;;;;;;30.74;25.95;100944.28;5045267;28;20065;-72
2021/07/26 11:21:12;;;;;;;7.63;5.07;;;;;;;30.57;26.80;100946.38;5024822;28;20122;-74
2021/07/26 11:23:54;;;;;;;5.78;3.60;;;;;;;29.77;26.71;100944.59;5029240;28;20041;-74
2021/07/26 11:26:28;;;;;;;6.28;3.45;;;;;;;29.77;25.87;100948.16;5025530;28;21420;-73